Airfield :
LOGIN :

Register | Disclaimer

   EN    FR    IT 

 










Legend :    VFR   Marginal VFR   IFR   Intensive IFR   Very Intensive IFR
Visi :
Ceiling :
>= 8 km
>= 3000ft
5 to 8 km
1000 to 3000 ft
1500m to 5 km
500 to 1000 ft
800 to 1500m
200 to 500 ft
< 800m
< 200 ft
Symbols :   Thunderstorms  Fog  Heavy snow  Heavy precipitations  Wind > 20 kt
SIGMETs :     Misc.  Thunderstorms  Icing  Turbulence  Mountain Waves  Volcanic Ashes







- Airport Elevation : -11 ft
- IATA code : AMS


EHAM - Amsterdam Schiphol

CURRENT METAR :
  • 172125Z 35013G28KT 310V040 9999 VCSH FEW006 FEW020CB 01/00 Q1012 RESHSN NOSIG

EXPIRED METARs :
  • 172055Z 31009KT 280V350 9999 VCSH FEW020CB 02/M00 Q1011 TEMPO 34010G20KT 6000 SHRAGS
  • 172025Z 27006KT 9999 VCSH FEW020CB 01/M00 Q1011 TEMPO 34010G20KT 6000 SHRAGS
  • 171955Z VRB02KT 9999 VCSH FEW020CB 01/00 Q1010 RETSGSRA NOSIG
  • 171925Z 30004KT 9999 VCSH FEW022CB 01/00 Q1010 TEMPO 34018G28KT 6000 SHRAGS
  • 171855Z 33003KT 300V360 9999 -SHRA FEW015 FEW025CB 02/00 Q1009 TEMPO 34018G28KT 6000 SHRAGS

TAF TAF EHAM
Valid from the 17 at 18:00 until the 19 at 00:00 UTC


171657Z 1718/1824 32008KT 9999 FEW025
TEMPO 1718/1722 34018G28KT 5000 SHRAGS SHRASN FEW012 SCT022CB BKN030
BECMG 1803/1806 20005KT
No reported NOTAMs for that airfield.



MET'MAP, your aeronautical weather chart ! - Copyright ORBIFLY December 2007 - Disclaimer

ORBIFLY MET'MAP TEAM :

Programming & Development : Alexandra Zaïnal
Concept & Development : Baudouin d'Aumeries
Co-Development & Prog : Marc-Olivier Méhu
Technical & hardware support : Manuel Goepfert

Contact : metmap@orbifly.com




SOURCES & CREDITS :

   NOAA